createdAt,value
2023-05-02T00:00:08.668Z,70.42
2023-05-02T00:02:58.531Z,70.77
2023-05-02T00:05:28.095Z,71.14
2023-05-02T00:07:57.169Z,71.53
2023-05-02T00:10:26.087Z,71.82
2023-05-02T00:12:54.788Z,71.62
2023-05-02T00:15:23.826Z,71.11
2023-05-02T00:17:52.422Z,71.22
2023-05-02T00:20:21.306Z,71.37
2023-05-02T00:22:49.794Z,71.38
2023-05-02T00:25:18.662Z,70.93
2023-05-02T00:27:47.909Z,70.74
2023-05-02T00:30:18.272Z,70.90
2023-05-02T00:32:47.142Z,70.96
2023-05-02T00:35:15.982Z,70.56
2023-05-02T00:37:44.559Z,70.47
2023-05-02T00:40:13.686Z,70.62
2023-05-02T00:42:42.323Z,71.02
2023-05-02T00:45:11.969Z,70.97
2023-05-02T00:47:40.940Z,71.04
2023-05-02T00:50:09.794Z,70.45
2023-05-02T00:52:38.475Z,70.23
2023-05-02T00:55:08.286Z,70.38
2023-05-02T00:57:37.019Z,70.06
2023-05-02T01:00:07.446Z,69.55
2023-05-02T01:02:41.984Z,69.30
2023-05-02T01:05:17.194Z,69.29
2023-05-02T01:08:03.198Z,69.64
2023-05-02T01:10:50.706Z,69.59
2023-05-02T01:13:32.686Z,69.49
2023-05-02T01:16:06.253Z,69.75
2023-05-02T01:18:37.861Z,70.10
2023-05-02T01:21:12.392Z,70.41
2023-05-02T01:24:11.439Z,70.36
2023-05-02T01:26:59.685Z,70.10
2023-05-02T01:29:29.979Z,70.43
2023-05-02T01:32:01.580Z,70.72
2023-05-02T01:34:32.884Z,70.88
2023-05-02T01:37:05.080Z,70.82
2023-05-02T01:39:36.142Z,70.52
2023-05-02T01:42:06.815Z,70.53
2023-05-02T01:44:37.385Z,70.61
2023-05-02T01:47:08.262Z,70.85
2023-05-02T01:49:39.031Z,70.92
2023-05-02T01:52:11.978Z,70.77
2023-05-02T01:54:44.053Z,70.86
2023-05-02T01:57:13.936Z,71.12
2023-05-02T01:59:44.898Z,71.26
2023-05-02T02:02:16.645Z,71.39
2023-05-02T02:04:48.117Z,71.59
2023-05-02T02:07:17.360Z,71.39
2023-05-02T02:09:46.752Z,71.41
2023-05-02T02:12:24.699Z,71.63
2023-05-02T02:15:20.569Z,71.69
2023-05-02T02:18:15.598Z,71.48
2023-05-02T02:20:47.351Z,71.13
2023-05-02T02:23:17.434Z,70.87
2023-05-02T02:25:46.862Z,70.80
2023-05-02T02:28:15.772Z,70.52
2023-05-02T02:30:45.016Z,70.39
2023-05-02T02:33:13.890Z,70.03
2023-05-02T02:35:53.237Z,70.21
2023-05-02T02:38:39.613Z,70.27
2023-05-02T02:41:28.235Z,70.49
2023-05-02T02:44:23.961Z,70.47
2023-05-02T02:47:12.495Z,70.57
2023-05-02T02:50:06.632Z,70.83
2023-05-02T02:53:06.675Z,70.92
2023-05-02T02:55:49.030Z,71.12
2023-05-02T02:58:37.766Z,71.19
2023-05-02T03:01:13.077Z,71.30
2023-05-02T03:03:44.795Z,71.40
2023-05-02T03:06:14.336Z,71.34
2023-05-02T03:08:45.526Z,71.38
2023-05-02T03:11:14.359Z,71.36
2023-05-02T03:13:43.553Z,71.48
2023-05-02T03:16:31.433Z,71.45
2023-05-02T03:19:00.611Z,71.61
2023-05-02T03:21:32.038Z,71.34
2023-05-02T03:24:05.170Z,71.22
2023-05-02T03:26:34.769Z,71.33
2023-05-02T03:29:04.607Z,71.41
2023-05-02T03:31:33.718Z,71.45
2023-05-02T03:34:02.887Z,71.40
2023-05-02T03:36:32.181Z,71.01
2023-05-02T03:39:01.582Z,70.98
2023-05-02T03:41:31.103Z,71.13
2023-05-02T03:44:00.314Z,71.34
2023-05-02T03:46:29.448Z,71.34
2023-05-02T03:48:59.718Z,71.36
2023-05-02T03:51:29.009Z,71.18
2023-05-02T03:53:59.186Z,71.22
2023-05-02T03:56:28.513Z,71.26
2023-05-02T03:58:57.458Z,71.54
2023-05-02T04:01:26.315Z,71.43
2023-05-02T04:03:55.485Z,71.24
2023-05-02T04:06:24.617Z,71.15
2023-05-02T04:08:53.715Z,71.33
2023-05-02T04:11:22.997Z,71.68
2023-05-02T04:13:53.470Z,71.83
2023-05-02T04:16:22.964Z,71.82
2023-05-02T04:18:51.981Z,71.74
2023-05-02T04:21:20.873Z,71.69
2023-05-02T04:23:49.712Z,71.98
2023-05-02T04:26:18.657Z,71.84
2023-05-02T04:28:47.601Z,71.59
2023-05-02T04:31:16.970Z,71.22
2023-05-02T04:33:46.070Z,71.52
2023-05-02T04:36:15.554Z,71.97
2023-05-02T04:38:45.275Z,72.06
2023-05-02T04:41:15.622Z,71.86
2023-05-02T04:43:46.043Z,71.59
2023-05-02T04:46:15.036Z,71.45
2023-05-02T04:48:44.595Z,71.39
2023-05-02T04:51:15.540Z,71.37
2023-05-02T04:53:45.975Z,70.93
2023-05-02T04:56:15.007Z,70.49
2023-05-02T04:58:44.371Z,70.42
2023-05-02T05:01:13.542Z,70.41
2023-05-02T05:03:43.726Z,70.53
2023-05-02T05:06:13.205Z,70.59
2023-05-02T05:08:42.249Z,70.56
2023-05-02T05:11:11.558Z,70.87
2023-05-02T05:13:40.510Z,71.29
2023-05-02T05:16:09.849Z,71.10
2023-05-02T05:18:42.535Z,70.85
2023-05-02T05:21:11.973Z,70.40
2023-05-02T05:23:46.557Z,70.46
2023-05-02T05:26:17.140Z,70.45
2023-05-02T05:28:46.414Z,70.07
2023-05-02T05:31:18.434Z,69.52
2023-05-02T05:33:48.045Z,69.31
2023-05-02T05:36:17.892Z,69.19
2023-05-02T05:38:48.170Z,68.85
2023-05-02T05:41:18.653Z,68.28
2023-05-02T05:43:47.766Z,67.96
2023-05-02T05:46:16.921Z,67.75
2023-05-02T05:48:47.284Z,67.60
2023-05-02T05:51:17.407Z,67.18
2023-05-02T05:53:48.147Z,66.79
2023-05-02T05:56:18.963Z,66.41
2023-05-02T05:58:48.516Z,66.00
2023-05-02T06:01:18.743Z,65.61
2023-05-02T06:03:48.222Z,65.40
2023-05-02T06:06:18.022Z,64.79
2023-05-02T06:08:47.049Z,64.58
2023-05-02T06:11:16.508Z,64.25
2023-05-02T06:13:45.428Z,64.13
2023-05-02T06:16:14.775Z,63.70
2023-05-02T06:18:44.118Z,63.70
2023-05-02T06:21:13.685Z,63.00
2023-05-02T06:23:42.643Z,62.88
2023-05-02T06:26:11.713Z,62.46
2023-05-02T06:28:40.938Z,62.02
2023-05-02T06:31:10.510Z,61.73
2023-05-02T06:33:39.931Z,60.97
2023-05-02T06:36:09.188Z,60.56
2023-05-02T06:38:38.692Z,60.24
2023-05-02T06:41:13.295Z,60.01
2023-05-02T06:43:42.400Z,59.16
2023-05-02T06:46:11.586Z,58.51
2023-05-02T06:48:41.453Z,58.14
2023-05-02T06:51:10.510Z,57.51
2023-05-02T06:53:40.116Z,56.72
2023-05-02T06:56:11.143Z,56.05
2023-05-02T06:58:40.997Z,55.31
2023-05-02T07:01:11.480Z,54.64
2023-05-02T07:03:42.192Z,53.68
2023-05-02T07:06:11.990Z,53.51
2023-05-02T07:08:41.473Z,53.42
2023-05-02T07:11:11.487Z,53.21
2023-05-02T07:13:42.549Z,52.77
2023-05-02T07:16:11.997Z,52.21
2023-05-02T07:18:43.073Z,52.31
2023-05-02T07:21:15.005Z,51.99
2023-05-02T07:23:44.304Z,51.36
2023-05-02T07:26:13.562Z,50.75
2023-05-02T07:28:42.940Z,50.54
2023-05-02T07:31:12.420Z,49.68
2023-05-02T07:33:41.650Z,49.36
2023-05-02T07:36:10.585Z,48.94
2023-05-02T07:38:39.601Z,48.69
2023-05-02T07:41:09.054Z,48.89
2023-05-02T07:43:39.243Z,48.92
2023-05-02T07:46:08.827Z,48.20
2023-05-02T07:48:39.147Z,47.36
2023-05-02T07:51:10.511Z,46.24
2023-05-02T07:53:39.728Z,46.61
2023-05-02T07:56:09.530Z,45.89
2023-05-02T07:58:38.679Z,45.99
2023-05-02T08:01:08.697Z,45.60
2023-05-02T08:03:37.772Z,45.42
2023-05-02T08:06:07.004Z,45.16
2023-05-02T08:08:36.823Z,45.02
2023-05-02T08:11:06.278Z,45.07
2023-05-02T08:13:35.237Z,44.83
2023-05-02T08:16:04.790Z,44.43
2023-05-02T08:18:34.045Z,44.47
2023-05-02T08:21:03.258Z,44.33
2023-05-02T08:23:33.449Z,43.90
2023-05-02T08:26:03.338Z,43.82
2023-05-02T08:28:33.367Z,43.65
2023-05-02T08:31:02.951Z,43.18
2023-05-02T08:33:32.254Z,42.70
2023-05-02T08:36:02.008Z,42.14
2023-05-02T08:38:32.126Z,42.26
2023-05-02T08:41:01.792Z,42.27
2023-05-02T08:43:33.460Z,41.44
2023-05-02T08:46:05.416Z,41.39
2023-05-02T08:48:39.281Z,41.31
2023-05-02T08:51:11.755Z,40.70
2023-05-02T08:53:42.105Z,40.87
2023-05-02T08:56:13.046Z,40.62
2023-05-02T08:58:43.006Z,40.40
2023-05-02T09:01:22.384Z,40.54
2023-05-02T09:03:53.260Z,40.94
2023-05-02T09:06:23.455Z,40.83
2023-05-02T09:08:53.842Z,40.75
2023-05-02T09:11:23.197Z,40.06
2023-05-02T09:13:53.135Z,39.71
2023-05-02T09:16:27.623Z,40.36
2023-05-02T09:18:59.529Z,40.43
2023-05-02T09:21:47.825Z,40.44
2023-05-02T09:24:22.949Z,40.98
2023-05-02T09:27:05.090Z,40.99
2023-05-02T09:29:39.336Z,41.84
2023-05-02T09:32:08.792Z,41.56
2023-05-02T09:34:40.178Z,41.50
2023-05-02T09:37:12.153Z,41.84
2023-05-02T09:39:41.773Z,40.86
2023-05-02T09:42:11.349Z,40.45
2023-05-02T09:44:41.310Z,40.71
2023-05-02T09:47:10.869Z,40.53
2023-05-02T09:49:45.861Z,40.77
2023-05-02T09:52:18.031Z,40.77
2023-05-02T09:54:47.838Z,40.49
2023-05-02T09:57:17.344Z,40.67
2023-05-02T09:59:58.524Z,40.67
2023-05-02T10:02:33.260Z,40.59
2023-05-02T10:05:05.290Z,40.28
2023-05-02T10:07:35.665Z,40.24
2023-05-02T10:10:07.565Z,40.01
2023-05-02T10:12:39.568Z,38.83
2023-05-02T10:15:13.908Z,36.72
2023-05-02T10:17:52.118Z,35.57
2023-05-02T10:20:28.242Z,34.13
2023-05-02T10:23:01.707Z,33.97
2023-05-02T10:25:31.330Z,33.00
2023-05-02T10:28:01.150Z,32.52
2023-05-02T10:30:32.388Z,31.40
2023-05-02T10:33:03.763Z,30.65
2023-05-02T10:35:33.334Z,30.50
2023-05-02T10:38:03.333Z,30.17
2023-05-02T10:40:33.122Z,29.77
2023-05-02T10:43:02.849Z,29.05
2023-05-02T10:45:33.204Z,28.16
2023-05-02T10:48:25.998Z,28.51
2023-05-02T10:50:58.050Z,28.04
2023-05-02T10:53:37.065Z,27.74
2023-05-02T10:56:22.796Z,27.59
2023-05-02T10:58:54.041Z,27.65
2023-05-02T11:01:29.076Z,27.61
2023-05-02T11:04:09.389Z,28.02
2023-05-02T11:07:00.227Z,28.57
2023-05-02T11:09:29.820Z,28.05
2023-05-02T11:11:59.702Z,27.81
2023-05-02T11:14:34.125Z,27.04
2023-05-02T11:17:05.879Z,26.82
2023-05-02T11:19:47.271Z,26.70
2023-05-02T11:22:23.808Z,26.66
2023-05-02T11:24:54.728Z,26.56
2023-05-02T11:27:34.093Z,26.24
2023-05-02T11:30:08.348Z,25.68
2023-05-02T11:32:50.063Z,25.30
2023-05-02T11:35:26.651Z,25.79
2023-05-02T11:37:58.190Z,25.71
2023-05-02T11:40:29.187Z,25.38
2023-05-02T11:43:00.466Z,25.49
2023-05-02T11:45:36.838Z,26.06
2023-05-02T11:48:08.189Z,25.80
2023-05-02T11:50:51.931Z,25.69
2023-05-02T11:53:27.229Z,25.84
2023-05-02T11:56:01.487Z,25.87
2023-05-02T11:58:35.787Z,25.36
2023-05-02T12:01:15.732Z,25.01
2023-05-02T12:03:46.214Z,24.87
2023-05-02T12:06:19.855Z,24.71
2023-05-02T12:08:50.285Z,24.48
2023-05-02T12:11:19.632Z,24.34
2023-05-02T12:13:50.948Z,24.88
2023-05-02T12:16:20.876Z,25.42
2023-05-02T12:18:51.251Z,26.27
2023-05-02T12:21:20.996Z,26.69
2023-05-02T12:23:50.497Z,27.62
2023-05-02T12:26:29.992Z,28.34
2023-05-02T12:29:01.389Z,28.79
2023-05-02T12:31:32.477Z,29.42
2023-05-02T12:34:02.088Z,29.62
2023-05-02T12:36:34.485Z,29.95
2023-05-02T12:39:05.521Z,29.36
2023-05-02T12:41:38.527Z,29.21
2023-05-02T12:44:08.470Z,29.70
2023-05-02T12:46:37.948Z,29.69
2023-05-02T12:49:10.287Z,30.23
2023-05-02T12:51:41.306Z,31.29
2023-05-02T12:54:22.027Z,31.24
2023-05-02T12:56:52.602Z,32.51
2023-05-02T12:59:31.772Z,33.08
2023-05-02T13:02:01.438Z,33.28
2023-05-02T13:04:42.624Z,33.71
2023-05-02T13:07:13.283Z,34.28
2023-05-02T13:09:42.896Z,34.49
2023-05-02T13:12:12.337Z,35.19
2023-05-02T13:14:43.332Z,35.63
2023-05-02T13:17:13.770Z,36.18
2023-05-02T13:19:50.409Z,37.05
2023-05-02T13:22:28.294Z,37.27
2023-05-02T13:24:58.450Z,36.89
2023-05-02T13:27:28.840Z,36.33
2023-05-02T13:29:58.483Z,35.68
2023-05-02T13:32:29.010Z,35.31
2023-05-02T13:34:58.526Z,35.50
2023-05-02T13:37:28.720Z,35.50
2023-05-02T13:39:58.592Z,35.26
2023-05-02T13:42:27.724Z,35.04
2023-05-02T13:44:57.240Z,35.76
2023-05-02T13:47:26.895Z,36.12
2023-05-02T13:49:56.779Z,36.62
2023-05-02T13:52:26.560Z,37.04
2023-05-02T13:54:56.566Z,37.61
2023-05-02T13:57:26.289Z,37.93
2023-05-02T13:59:56.007Z,38.25
2023-05-02T14:02:26.802Z,38.01
2023-05-02T14:04:57.493Z,38.03
2023-05-02T14:07:27.234Z,37.82
2023-05-02T14:09:57.521Z,37.98
2023-05-02T14:12:26.990Z,37.82
2023-05-02T14:14:58.107Z,37.80
2023-05-02T14:17:28.058Z,38.17
2023-05-02T14:19:59.008Z,38.44
2023-05-02T14:22:28.812Z,38.56
2023-05-02T14:24:58.631Z,38.16
2023-05-02T14:27:28.590Z,38.04
2023-05-02T14:29:59.353Z,38.21
2023-05-02T14:32:29.245Z,38.27
2023-05-02T14:34:59.415Z,37.79
2023-05-02T14:37:29.595Z,38.41
2023-05-02T14:40:00.146Z,38.27
2023-05-02T14:42:30.310Z,39.09
2023-05-02T14:45:02.780Z,39.88
2023-05-02T14:47:32.072Z,40.41
2023-05-02T14:50:04.087Z,40.65
2023-05-02T14:52:33.563Z,40.98
2023-05-02T14:55:03.826Z,41.96
2023-05-02T14:57:34.342Z,41.71
2023-05-02T15:00:11.292Z,42.10
2023-05-02T15:02:41.784Z,41.88
2023-05-02T15:05:12.914Z,42.33
2023-05-02T15:07:42.368Z,41.86
2023-05-02T15:10:12.424Z,42.26
2023-05-02T15:12:43.942Z,42.31
2023-05-02T15:15:13.274Z,41.94
2023-05-02T15:17:42.784Z,42.14
2023-05-02T15:20:14.637Z,42.19
2023-05-02T15:22:44.930Z,42.38
2023-05-02T15:25:15.202Z,42.69
2023-05-02T15:27:45.300Z,42.52
2023-05-02T15:30:17.716Z,42.86
2023-05-02T15:32:49.214Z,43.18
2023-05-02T15:35:19.390Z,43.19
2023-05-02T15:37:51.855Z,43.39
2023-05-02T15:40:21.668Z,43.67
2023-05-02T15:42:51.068Z,44.02
2023-05-02T15:45:21.173Z,43.72
2023-05-02T15:47:51.987Z,44.18
2023-05-02T15:50:21.192Z,44.21
2023-05-02T15:52:51.749Z,44.71
2023-05-02T15:55:21.432Z,44.58
2023-05-02T15:57:52.415Z,45.14
2023-05-02T16:00:22.988Z,45.50
2023-05-02T16:02:52.680Z,45.79
2023-05-02T16:05:23.790Z,46.08
2023-05-02T16:07:53.981Z,46.08
2023-05-02T16:10:25.507Z,46.27
2023-05-02T16:12:56.583Z,46.28
2023-05-02T16:15:27.356Z,46.20
2023-05-02T16:17:56.627Z,46.83
2023-05-02T16:20:26.675Z,46.53
2023-05-02T16:22:56.051Z,46.60
2023-05-02T16:25:25.811Z,47.34
2023-05-02T16:27:56.381Z,47.89
2023-05-02T16:30:29.128Z,48.76
2023-05-02T16:32:58.650Z,50.84
2023-05-02T16:35:28.155Z,52.29
2023-05-02T16:37:57.616Z,53.66
2023-05-02T16:40:28.315Z,55.26
2023-05-02T16:42:57.938Z,55.35
2023-05-02T16:45:27.478Z,56.52
2023-05-02T16:47:59.661Z,57.65
2023-05-02T16:50:30.062Z,57.92
2023-05-02T16:52:59.346Z,58.60
2023-05-02T16:55:28.735Z,58.90
2023-05-02T16:57:58.957Z,59.59
2023-05-02T17:00:29.983Z,60.56
2023-05-02T17:03:02.265Z,60.79
2023-05-02T17:05:33.965Z,61.44
2023-05-02T17:08:04.407Z,61.11
2023-05-02T17:10:35.044Z,61.45
2023-05-02T17:13:06.858Z,62.35
2023-05-02T17:15:40.118Z,62.86
2023-05-02T17:18:09.439Z,62.85
2023-05-02T17:20:40.829Z,62.40
2023-05-02T17:23:10.968Z,62.48
2023-05-02T17:25:43.096Z,62.92
2023-05-02T17:28:14.515Z,62.82
2023-05-02T17:30:44.745Z,62.58
2023-05-02T17:33:15.730Z,62.97
2023-05-02T17:35:46.171Z,62.98
2023-05-02T17:38:16.591Z,63.50
2023-05-02T17:40:45.957Z,63.42
2023-05-02T17:43:15.160Z,63.40
2023-05-02T17:45:45.290Z,63.61
2023-05-02T17:48:15.170Z,64.03
2023-05-02T17:50:44.859Z,63.86
2023-05-02T17:53:16.139Z,63.45
2023-05-02T17:55:46.805Z,64.18
2023-05-02T17:58:17.915Z,64.40
2023-05-02T18:00:47.816Z,64.78
2023-05-02T18:03:18.621Z,64.42
2023-05-02T18:05:48.190Z,64.47
2023-05-02T18:08:18.050Z,64.64
2023-05-02T18:10:47.237Z,64.67
2023-05-02T18:13:17.166Z,64.85
2023-05-02T18:15:47.587Z,65.08
2023-05-02T18:18:17.403Z,65.08
2023-05-02T18:20:47.842Z,65.19
2023-05-02T18:23:17.960Z,65.26
2023-05-02T18:25:48.659Z,65.36
2023-05-02T18:28:20.270Z,65.18
2023-05-02T18:30:50.787Z,65.46
2023-05-02T18:33:20.401Z,65.25
2023-05-02T18:35:51.055Z,65.02
2023-05-02T18:38:20.802Z,65.11
2023-05-02T18:40:51.102Z,64.91
2023-05-02T18:43:23.890Z,64.86
2023-05-02T18:45:55.656Z,64.83
2023-05-02T18:48:27.030Z,64.54
2023-05-02T18:50:59.370Z,64.36
2023-05-02T18:53:31.151Z,64.58
2023-05-02T18:56:02.066Z,64.44
2023-05-02T18:58:34.384Z,64.55
2023-05-02T19:01:13.320Z,64.80
2023-05-02T19:03:44.679Z,65.14
2023-05-02T19:06:16.424Z,65.54
2023-05-02T19:08:49.381Z,65.54
2023-05-02T19:11:20.512Z,65.72
2023-05-02T19:13:51.693Z,65.74
2023-05-02T19:16:26.855Z,65.76
2023-05-02T19:18:59.185Z,65.06
2023-05-02T19:21:31.200Z,64.57
2023-05-02T19:24:04.190Z,64.14
2023-05-02T19:26:35.003Z,64.58
2023-05-02T19:29:06.045Z,64.79
2023-05-02T19:31:36.831Z,64.75
2023-05-02T19:34:08.336Z,64.86
2023-05-02T19:36:40.162Z,65.13
2023-05-02T19:39:14.975Z,65.78
2023-05-02T19:41:52.312Z,65.66
2023-05-02T19:44:26.441Z,65.30
2023-05-02T19:46:58.945Z,65.34
2023-05-02T19:49:29.521Z,65.48
2023-05-02T19:52:00.217Z,65.83
2023-05-02T19:54:32.512Z,65.59
2023-05-02T19:57:03.874Z,65.03
2023-05-02T19:59:34.699Z,65.27
2023-05-02T20:02:05.623Z,65.24
2023-05-02T20:04:37.029Z,64.67
2023-05-02T20:07:08.251Z,64.59
2023-05-02T20:09:40.457Z,64.26
2023-05-02T20:12:11.753Z,64.45
2023-05-02T20:14:44.194Z,64.58
2023-05-02T20:17:14.244Z,64.41
2023-05-02T20:19:47.152Z,64.53
2023-05-02T20:22:19.672Z,65.00
2023-05-02T20:24:51.701Z,64.74
2023-05-02T20:27:21.866Z,64.41
2023-05-02T20:29:52.875Z,64.31
2023-05-02T20:32:22.852Z,64.40
2023-05-02T20:34:52.481Z,64.48
2023-05-02T20:37:22.762Z,64.37
2023-05-02T20:39:54.479Z,63.78
2023-05-02T20:42:26.133Z,63.50
2023-05-02T20:45:02.036Z,63.71
2023-05-02T20:47:33.182Z,64.29
2023-05-02T20:50:03.191Z,64.66
2023-05-02T20:52:34.460Z,64.65
2023-05-02T20:55:04.815Z,64.94
2023-05-02T20:57:35.220Z,64.86
2023-05-02T21:00:05.731Z,64.71
2023-05-02T21:02:35.679Z,64.40
2023-05-02T21:05:05.770Z,63.95
2023-05-02T21:07:36.016Z,63.99
2023-05-02T21:10:06.787Z,64.25
2023-05-02T21:12:36.804Z,64.09
2023-05-02T21:15:08.301Z,63.63
2023-05-02T21:17:41.019Z,64.06
2023-05-02T21:20:12.113Z,64.05
2023-05-02T21:22:44.090Z,64.18
2023-05-02T21:25:17.154Z,64.30
2023-05-02T21:27:48.574Z,64.39
2023-05-02T21:30:19.461Z,64.21
2023-05-02T21:32:51.009Z,64.35
2023-05-02T21:35:21.045Z,63.83
2023-05-02T21:37:50.851Z,63.46
2023-05-02T21:40:20.224Z,63.31
2023-05-02T21:42:49.444Z,63.38
2023-05-02T21:45:19.112Z,63.48
2023-05-02T21:47:48.763Z,63.54
2023-05-02T21:50:19.653Z,63.57
2023-05-02T21:52:49.069Z,63.80
2023-05-02T21:55:20.872Z,63.78
2023-05-02T21:57:52.139Z,63.52
2023-05-02T22:00:24.545Z,63.33
2023-05-02T22:02:54.066Z,63.12
2023-05-02T22:05:24.871Z,63.24
2023-05-02T22:07:54.942Z,63.41
2023-05-02T22:10:25.605Z,63.26
2023-05-02T22:12:57.043Z,63.65
2023-05-02T22:15:27.432Z,63.70
2023-05-02T22:17:57.561Z,64.24
2023-05-02T22:20:28.193Z,64.44
2023-05-02T22:22:59.246Z,64.61
2023-05-02T22:25:28.812Z,64.76
2023-05-02T22:28:01.843Z,65.20
2023-05-02T22:30:31.029Z,65.21
2023-05-02T22:33:01.500Z,65.35
2023-05-02T22:35:31.304Z,65.29
2023-05-02T22:38:02.872Z,65.47
2023-05-02T22:40:33.160Z,65.37
2023-05-02T22:43:02.438Z,65.25
2023-05-02T22:45:31.790Z,64.87
2023-05-02T22:48:01.153Z,64.69
2023-05-02T22:50:31.979Z,64.94
2023-05-02T22:53:04.329Z,64.65
2023-05-02T22:55:33.710Z,64.54
2023-05-02T22:58:03.544Z,64.78
2023-05-02T23:00:32.906Z,65.22
2023-05-02T23:03:03.416Z,65.07
2023-05-02T23:05:32.764Z,65.00
2023-05-02T23:08:02.116Z,64.96
2023-05-02T23:10:31.270Z,65.28
2023-05-02T23:13:00.336Z,65.32
2023-05-02T23:15:29.525Z,65.21
2023-05-02T23:17:59.902Z,65.36
2023-05-02T23:20:29.590Z,65.29
2023-05-02T23:22:59.141Z,65.66
2023-05-02T23:25:28.782Z,65.76
2023-05-02T23:27:57.981Z,65.44
2023-05-02T23:30:27.141Z,65.15
2023-05-02T23:32:56.605Z,65.37
2023-05-02T23:35:25.900Z,65.65
2023-05-02T23:37:55.088Z,65.69
2023-05-02T23:40:23.878Z,65.63
2023-05-02T23:42:54.461Z,65.72
2023-05-02T23:45:23.230Z,65.96
2023-05-02T23:47:52.331Z,66.03
2023-05-02T23:50:21.418Z,66.00
2023-05-02T23:52:50.570Z,66.12
2023-05-02T23:55:19.478Z,66.31
2023-05-02T23:57:48.415Z,66.47
